Flight Track Log - Related Links

Times and Time Zones

All times are in EDT time to prevent confusion due to time zone crossing. See the UPS2974 flight status page for this flight to view local times or setup timezone preferences in your user account.


Time Position Orientation Groundspeed Altitude Reporting Facility
EDT Latitude Longitude Course Direction KTS MPH feet Rate Location/Type
Fri 03:43:32 PM 38.1630 -85.7410 165° South 172 198 900  Level FlightAware ADS-B
Fri 03:44:02 PM 38.1390 -85.7340 167° South 180 207 2,700 2,933 Climbing FlightAware ADS-B
Fri 03:44:17 PM 38.1250 -85.7320 174° South 204 235 3,100 1,400 Climbing FlightAware ADS-B
Fri 03:44:32 PM 38.1110 -85.7330 183° South 231 266 3,400 1,400 Climbing FlightAware ADS-B
Fri 03:44:47 PM 38.0950 -85.7430 206° Southwest 259 298 3,800 2,160 Climbing FlightAware ADS-B
Fri 03:44:57 PM 38.0860 -85.7530 221° Southwest 266 306 4,300 3,360 Climbing FlightAware ADS-B
Fri 03:45:12 PM 38.0790 -85.7750 248° West 277 319 5,200 3,333 Climbing FlightAware ADS-B
Fri 03:45:42 PM 38.0780 -85.8230 268° West 286 329 6,800 3,467 Climbing FlightAware ADS-B
Fri 03:45:57 PM 38.0770 -85.8500 267° West 284 327 7,800 3,600 Climbing FlightAware ADS-B
Fri 03:46:22 PM 38.0760 -85.8920 268° West 286 329 9,200 2,486 Climbing FlightAware ADS-B
Fri 03:47:07 PM 38.0720 -85.9710 266° West 322 371 10,700 1,694 Climbing FlightAware ADS-B
Fri 03:47:47 PM 38.0660 -86.0530 265° West 372 428 11,600 1,800 Climbing FlightAware ADS-B
Fri 03:48:27 PM 38.0590 -86.1460 265° West 392 451 13,100 2,259 Climbing FlightAware ADS-B
Fri 03:49:12 PM 38.0490 -86.2480 263° West 407 468 14,800 2,259 Climbing FlightAware ADS-B
Fri 03:49:52 PM 38.0410 -86.3420 264° West 419 482 16,300 2,259 Climbing FlightAware ADS-B
Fri 03:50:37 PM 38.0320 -86.4590 264° West 431 496 18,000 2,259 Climbing FlightAware ADS-B
Fri 03:51:17 PM 38.0240 -86.5610 264° West 439 505 19,500 2,175 Climbing FlightAware ADS-B
Fri 03:51:57 PM 38.0150 -86.6630 264° West 442 509 20,900 2,025 Climbing FlightAware ADS-B
Fri 03:52:37 PM 38.0050 -86.7670 263° West 447 514 22,200 1,694 Climbing FlightAware ADS-B
Fri 03:53:22 PM 37.9950 -86.8830 264° West 458 527 23,300 1,553 Climbing FlightAware ADS-B
Fri 03:54:02 PM 37.9850 -86.9900 263° West 463 533 24,400 1,624 Climbing FlightAware ADS-B
Fri 03:54:47 PM 37.9730 -87.1140 263° West 468 539 25,600 1,341 Climbing FlightAware ADS-B
Fri 03:55:27 PM 37.9620 -87.2240 263° West 478 550 26,300 1,129 Climbing FlightAware ADS-B
Fri 03:56:12 PM 37.9520 -87.3450 264° West 482 555 27,200 1,341 Climbing FlightAware ADS-B
Fri 03:56:52 PM 37.9420 -87.4600 264° West 482 555 28,200 1,500 Climbing FlightAware ADS-B
Fri 03:57:32 PM 37.9420 -87.5730 270° West 488 562 29,200 1,271 Climbing FlightAware ADS-B
Fri 03:58:17 PM 37.9770 -87.6970 290° West 495 570 30,000 600 Climbing FlightAware ADS-B
Fri 03:58:52 PM 38.0050 -87.7860 292° West 493 567 30,000  Level FlightAware ADS-B
Fri 03:59:42 PM 38.0460 -87.9210 291° West 494 568 30,000  Level FlightAware ADS-B
Fri 04:00:22 PM 38.0800 -88.0290 292° West 492 566 30,000  Level FlightAware ADS-B
Fri 04:01:02 PM 38.1130 -88.1390 291° West 491 565 30,000  Level FlightAware ADS-B
Fri 04:01:47 PM 38.1510 -88.2610 292° West 493 567 30,000  Level FlightAware ADS-B
Fri 04:02:17 PM 38.1750 -88.3420 291° West 492 566 30,000  Level FlightAware ADS-B
Fri 04:02:57 PM 38.2080 -88.4500 291° West 492 566 30,000  Level FlightAware ADS-B
Fri 04:03:37 PM 38.2410 -88.5580 291° West 493 567 30,000  Level FlightAware ADS-B
Fri 04:04:22 PM 38.2780 -88.6830 291° West 494 568 30,000  Level FlightAware ADS-B
Fri 04:05:02 PM 38.3100 -88.7920 291° West 494 568 30,000  Level FlightAware ADS-B
Fri 04:05:42 PM 38.3430 -88.8980 292° West 496 571 30,000  Level FlightAware ADS-B
Fri 04:06:27 PM 38.3780 -89.0190 290° West 498 573 30,000  Level FlightAware ADS-B
Fri 04:07:12 PM 38.4130 -89.1370 291° West 499 574 30,000  Level FlightAware ADS-B
Fri 04:07:52 PM 38.4500 -89.2550 292° West 502 578 30,000  Level FlightAware ADS-B
Fri 04:08:47 PM 38.4990 -89.3910 295° West 502 578 30,000  Level FlightAware ADS-B
Fri 04:09:32 PM 38.5450 -89.5270 293° West 508 585 30,000  Level FlightAware ADS-B
Fri 04:10:12 PM 38.5800 -89.6350 293° West 509 586 30,000  Level FlightAware ADS-B
Fri 04:10:52 PM 38.6160 -89.7430 293° West 511 588 30,000  Level FlightAware ADS-B
Fri 04:11:32 PM 38.6540 -89.8540 294° West 511 588 30,000  Level FlightAware ADS-B
Fri 04:12:17 PM 38.6950 -89.9760 293° West 511 588 30,000  Level FlightAware ADS-B
Fri 04:12:57 PM 38.7310 -90.0890 292° West 514 592 30,000  Level FlightAware ADS-B
Fri 04:13:42 PM 38.7760 -90.2240 293° West 515 593 30,000  Level FlightAware ADS-B
Fri 04:14:22 PM 38.8090 -90.3280 292° West 515 593 30,000  Level FlightAware ADS-B
Fri 04:14:57 PM 38.8450 -90.4330 294° West 516 594 30,000  Level FlightAware ADS-B
Fri 04:15:47 PM 38.8940 -90.5800 293° West 521 600 30,000  Level FlightAware ADS-B
Fri 04:16:27 PM 38.9300 -90.6850 294° West 521 600 30,000  Level FlightAware ADS-B
Fri 04:17:04 PM 38.9650 -90.7900 293° West 522 601 30,000  Level FlightAware ADS-B
Fri 04:17:53 PM 39.0150 -90.9320 294° West 526 605 30,000  Level FlightAware ADS-B
Fri 04:18:28 PM 39.0500 -91.0350 294° West 526 605 30,000  Level FlightAware ADS-B
Fri 04:19:28 PM 39.1040 -91.1970 293° West 525 604 30,000  Level FlightAware ADS-B
Fri 04:20:08 PM 39.1440 -91.3160 293° West 524 603 30,000  Level FlightAware ADS-B
Fri 04:20:53 PM 39.1880 -91.4480 293° West 526 605 30,000  Level FlightAware ADS-B
Fri 04:21:33 PM 39.2270 -91.5670 293° West 529 609 30,000  Level FlightAware ADS-B
Fri 04:22:18 PM 39.2650 -91.6800 294° West 529 609 30,000  Level FlightAware ADS-B
Fri 04:23:03 PM 39.3130 -91.8260 293° West 532 612 30,000  Level FlightAware ADS-B
Fri 04:23:38 PM 39.3430 -91.9180 293° West 532 612 30,000  Level FlightAware ADS-B
Fri 04:24:18 PM 39.3760 -92.0180 293° West 532 612 30,000  Level FlightAware ADS-B
Fri 04:25:08 PM 39.4170 -92.1420 293° West 532 612 30,000  Level FlightAware ADS-B
Fri 04:25:48 PM 39.4490 -92.2420 293° West 532 612 30,000 1,500 Level FlightAware ADS-B
Fri 04:26:28 PM 39.5090 -92.4270 293° West 531 611 32,000 1,412 Climbing FlightAware ADS-B
Fri 04:27:13 PM 39.5440 -92.5410 292° West 532 612 32,000  Level FlightAware ADS-B
Fri 04:27:53 PM 39.5760 -92.6410 293° West 532 612 32,000  Level FlightAware ADS-B
Fri 04:28:33 PM 39.6070 -92.7420 292° West 532 612 32,000  Level FlightAware ADS-B
Fri 04:29:33 PM 39.6770 -92.9570 293° West 535 616 32,000  Level FlightAware ADS-B
Fri 04:30:18 PM 39.7230 -93.1020 292° West 538 619 32,000  Level FlightAware ADS-B
Fri 04:30:58 PM 39.7610 -93.2220 292° West 540 621 32,000  Level FlightAware ADS-B
Fri 04:31:38 PM 39.7980 -93.3420 292° West 540 621 32,000  Level FlightAware ADS-B
Fri 04:32:23 PM 39.8420 -93.4810 292° West 542 624 32,000  Level FlightAware ADS-B
Fri 04:33:03 PM 39.8800 -93.6050 292° West 542 624 32,000  Level FlightAware ADS-B
Fri 04:33:43 PM 39.9170 -93.7260 292° West 543 625 32,000  Level FlightAware ADS-B
Fri 04:34:28 PM 39.9580 -93.8600 292° West 545 627 32,000  Level FlightAware ADS-B
Fri 04:35:08 PM 39.9950 -93.9820 292° West 545 627 32,000  Level FlightAware ADS-B
Fri 04:35:53 PM 40.0420 -94.1200 294° West 546 628 32,000  Level FlightAware ADS-B
Fri 04:36:33 PM 40.0840 -94.2370 295° West 547 629 32,000  Level FlightAware ADS-B
Fri 04:37:13 PM 40.1270 -94.3600 295° West 548 631 32,000  Level FlightAware ADS-B
Fri 04:37:58 PM 40.1730 -94.4930 294° West 548 631 32,000  Level FlightAware ADS-B
Fri 04:38:33 PM 40.2120 -94.6020 295° West 550 633 32,000  Level FlightAware ADS-B
Fri 04:39:13 PM 40.2510 -94.7170 294° West 552 635 32,000  Level FlightAware ADS-B
Fri 04:40:03 PM 40.3010 -94.8630 294° West 551 634 32,000  Level FlightAware ADS-B
Fri 04:41:28 PM 40.3570 -95.0270 294° West 550 633 32,000  Level FlightAware ADS-B
Fri 04:42:08 PM 40.3930 -95.1310 294° West 550 633 32,000  Level FlightAware ADS-B
Fri 04:43:23 PM 40.4060 -95.4050 274° West 541 623 32,000  Level FlightAware ADS-B
Fri 04:44:03 PM 40.4220 -95.5150 281° West 541 623 32,000  Level FlightAware ADS-B
Fri 04:44:43 PM 40.4380 -95.6240 281° West 541 623 32,000  Level FlightAware ADS-B
Fri 04:47:18 PM 40.5160 -96.1620 281° West 536 617 32,000  Level FlightAware ADS-B
Fri 04:47:58 PM 40.5330 -96.2710 282° West 536 617 32,000  Level FlightAware ADS-B
Fri 04:48:38 PM 40.5490 -96.3800 281° West 536 617 32,000  Level FlightAware ADS-B
Fri 04:49:18 PM 40.5650 -96.4890 281° West 536 617 32,000  Level FlightAware ADS-B
Fri 04:50:08 PM 40.5850 -96.6250 281° West 536 617 32,000  Level FlightAware ADS-B
Fri 04:50:48 PM 40.6010 -96.7340 281° West 536 617 32,000  Level FlightAware ADS-B
Fri 04:51:28 PM 40.6170 -96.8430 281° West 536 617 32,000  Level FlightAware ADS-B
Fri 04:52:08 PM 40.6330 -96.9520 281° West 536 617 32,000  Level FlightAware ADS-B
Fri 04:52:48 PM 40.6490 -97.0610 281° West 536 617 32,000  Level FlightAware ADS-B
Fri 04:53:38 PM 40.6690 -97.1980 281° West 536 617 32,000  Level FlightAware ADS-B
Fri 04:54:18 PM 40.6850 -97.3070 281° West 536 617 32,000  Level FlightAware ADS-B
Fri 04:54:58 PM 40.7010 -97.4160 281° West 536 617 32,000  Level FlightAware ADS-B
Fri 04:55:38 PM 40.7170 -97.5250 281° West 536 617 32,000  Level FlightAware ADS-B
Fri 04:56:18 PM 40.7340 -97.6340 282° West 536 617 32,000  Level FlightAware ADS-B
Fri 04:56:35 PM 40.7528 -97.9467 282° West 504 580 32,000  Level Minneapolis Center
Fri 04:57:37 PM 40.7756 -98.1278 279° West 500 575 32,000  Level Minneapolis Center
Fri 04:58:39 PM 40.7978 -98.3086 279° West 498 573 32,000  Level Minneapolis Center
Fri 04:59:41 PM 40.8211 -98.4989 279° West 500 575 32,000  Level Minneapolis Center
Fri 05:00:43 PM 40.8422 -98.6769 279° West 495 570 32,000  Level Minneapolis Center
Fri 05:01:45 PM 40.8681 -98.8897 279° West 491 565 32,000  Level Minneapolis Center
Fri 05:02:47 PM 40.8881 -99.0683 278° West 491 565 32,000  Level Minneapolis Center
Fri 05:03:18 PM 40.8958 -99.1397 278° West 489 563 32,000  Level Denver Center
Fri 05:04:20 PM 40.9161 -99.3172 279° West 486 559 32,000  Level Denver Center
Fri 05:05:22 PM 40.9400 -99.5289 279° West 483 556 32,000  Level Denver Center
Fri 05:06:24 PM 40.9592 -99.7008 278° West 476 548 32,000  Level Denver Center
Fri 05:07:26 PM 40.9786 -99.8811 278° West 467 537 32,000  Level Denver Center
Fri 05:08:28 PM 40.9953 -100.0431 278° West 465 535 32,000  Level Denver Center
Fri 05:09:30 PM 41.0144 -100.2278 278° West 458 527 32,000  Level Denver Center
Fri 05:10:32 PM 41.0306 -100.3819 278° West 449 517 32,000  Level Denver Center
Fri 05:11:34 PM 41.0494 -100.5608 278° West 445 512 32,000  Level Denver Center
Fri 05:12:36 PM 41.0650 -100.7139 278° West 445 512 32,000  Level Denver Center
Fri 05:18:12 PM 41.1520 -101.6250 278° West 431 496 32,000  Level FlightAware ADS-B
Fri 05:18:43 PM 41.1593 -101.7050 277° West 426 490 32,000  Level FlightAware ADS-B
Fri 05:19:13 PM 41.1664 -101.7850 277° West 425 489 32,000  Level FlightAware ADS-B
Fri 05:19:43 PM 41.1735 -101.8630 277° West 426 490 32,000  Level FlightAware ADS-B
Fri 05:20:14 PM 41.1806 -101.9410 277° West 426 490 32,000  Level FlightAware ADS-B
Fri 05:20:45 PM 41.1877 -102.0240 277° West 427 491 32,000  Level FlightAware ADS-B
Fri 05:21:23 PM 41.1964 -102.1230 277° West 429 494 32,000  Level FlightAware ADS-B
Fri 05:21:54 PM 41.2034 -102.2040 277° West 429 494 32,000  Level FlightAware ADS-B
Fri 05:22:28 PM 41.2113 -102.2930 277° West 429 494 32,000  Level FlightAware ADS-B
Fri 05:22:58 PM 41.2179 -102.3710 276° West 429 494 32,000  Level FlightAware ADS-B
Fri 05:23:29 PM 41.2247 -102.4520 276° West 430 495 32,000  Level FlightAware ADS-B
Fri 05:24:02 PM 41.2318 -102.5360 276° West 430 495 32,000  Level FlightAware ADS-B
Fri 05:24:32 PM 41.2385 -102.6170 276° West 431 496 32,000  Level FlightAware ADS-B
Fri 05:25:02 PM 41.2450 -102.6960 276° West 430 495 32,000  Level FlightAware ADS-B
Fri 05:25:32 PM 41.2514 -102.7750 276° West 430 495 32,000  Level FlightAware ADS-B
Fri 05:26:03 PM 41.2581 -102.8560 276° West 427 491 32,000  Level FlightAware ADS-B
Fri 05:26:33 PM 41.2643 -102.9340 276° West 425 489 32,000  Level FlightAware ADS-B
Fri 05:27:03 PM 41.2706 -103.0120 276° West 426 490 32,000  Level FlightAware ADS-B
Fri 05:27:43 PM 41.2787 -103.1160 276° West 427 491 32,000  Level FlightAware ADS-B
Fri 05:28:13 PM 41.2849 -103.1940 276° West 426 490 32,000  Level FlightAware ADS-B
Fri 05:28:44 PM 41.2910 -103.2750 276° West 424 488 32,000  Level FlightAware ADS-B
Fri 05:29:15 PM 41.2973 -103.3550 276° West 425 489 32,000  Level FlightAware ADS-B
Fri 05:29:47 PM 41.3036 -103.4360 276° West 426 490 32,000  Level FlightAware ADS-B
Fri 05:30:17 PM 41.3096 -103.5160 276° West 426 490 32,000  Level FlightAware ADS-B
Fri 05:30:47 PM 41.3154 -103.5950 276° West 428 493 32,000  Level FlightAware ADS-B
Fri 05:31:17 PM 41.3213 -103.6740 276° West 430 495 32,000  Level FlightAware ADS-B
Fri 05:31:48 PM 41.3272 -103.7550 276° West 429 494 32,000  Level FlightAware ADS-B
Fri 05:32:18 PM 41.3330 -103.8330 276° West 429 494 32,000  Level FlightAware ADS-B
Fri 05:32:48 PM 41.3380 -103.9050 275° West 428 493 32,000  Level FlightAware ADS-B
Fri 05:32:53 PM 41.3395 -103.9260 275° West 429 494 32,000  Level FlightAware ADS-B
Fri 05:33:24 PM 41.3453 -104.0040 276° West 427 491 32,000  Level FlightAware ADS-B
Fri 05:33:54 PM 41.3508 -104.0850 275° West 428 493 32,000  Level FlightAware ADS-B
Fri 05:34:25 PM 41.3565 -104.1670 275° West 431 496 32,000  Level FlightAware ADS-B
Fri 05:34:55 PM 41.3621 -104.2460 275° West 432 497 32,000  Level FlightAware ADS-B
Fri 05:35:25 PM 41.3674 -104.3250 275° West 429 494 32,000  Level FlightAware ADS-B
Fri 05:35:57 PM 41.3730 -104.4090 275° West 430 495 32,000  Level FlightAware ADS-B
Fri 05:36:29 PM 41.3788 -104.4930 275° West 431 496 32,000  Level FlightAware ADS-B
Fri 05:37:00 PM 41.3842 -104.5750 275° West 431 496 32,000  Level FlightAware ADS-B
Fri 05:37:30 PM 41.3895 -104.6540 275° West 432 497 32,000  Level FlightAware ADS-B
Fri 05:38:01 PM 41.3947 -104.7360 275° West 432 497 32,000  Level FlightAware ADS-B
Fri 05:38:32 PM 41.3999 -104.8180 275° West 432 497 32,000  Level FlightAware ADS-B
Fri 05:39:02 PM 41.4050 -104.8970 275° West 432 497 32,000  Level FlightAware ADS-B
Fri 05:39:33 PM 41.4102 -104.9790 275° West 432 497 32,000  Level FlightAware ADS-B
Fri 05:40:05 PM 41.4153 -105.0640 275° West 430 495 32,000  Level FlightAware ADS-B
Fri 05:40:36 PM 41.4204 -105.1460 275° West 430 495 32,000  Level FlightAware ADS-B
Fri 05:41:07 PM 41.4254 -105.2270 275° West 429 494 32,000  Level FlightAware ADS-B
Fri 05:41:52 PM 41.4323 -105.3430 275° West 428 493 32,000  Level FlightAware ADS-B
Fri 05:42:28 PM 41.4380 -105.4380 275° West 429 494 32,000  Level FlightAware ADS-B
Fri 05:43:08 PM 41.4440 -105.5400 275° West 428 493 32,000  Level FlightAware ADS-B
Fri 05:43:53 PM 41.4510 -105.6610 274° West 429 494 32,000  Level FlightAware ADS-B
Fri 05:44:33 PM 41.4560 -105.7640 274° West 430 495 32,000  Level FlightAware ADS-B
Fri 05:45:18 PM 41.4630 -105.8830 275° West 429 494 32,000  Level FlightAware ADS-B
Fri 05:46:03 PM 41.4690 -106.0010 274° West 428 493 32,000  Level FlightAware ADS-B
Fri 05:46:43 PM 41.4750 -106.1090 274° West 427 491 32,000  Level FlightAware ADS-B
Fri 05:47:28 PM 41.4810 -106.2190 274° West 428 493 32,000  Level FlightAware ADS-B
Fri 05:47:58 PM 41.4840 -106.2950 273° West 428 493 32,000  Level FlightAware ADS-B
Fri 05:48:58 PM 41.4920 -106.4540 274° West 429 494 32,000  Level FlightAware ADS-B
Fri 05:49:48 PM 41.4960 -106.5670 273° West 429 494 32,000  Level FlightAware ADS-B
Fri 05:50:28 PM 41.5000 -106.6570 273° West 429 494 32,000  Level FlightAware ADS-B
Fri 05:51:08 PM 41.5040 -106.7470 273° West 429 494 32,000  Level FlightAware ADS-B
Fri 05:51:48 PM 41.5070 -106.8370 273° West 429 494 32,000  Level FlightAware ADS-B
Fri 05:52:28 PM 41.5110 -106.9270 273° West 429 494 32,000  Level FlightAware ADS-B
Fri 05:53:18 PM 41.5150 -107.0390 273° West 429 494 32,000  Level FlightAware ADS-B
Fri 05:53:58 PM 41.5180 -107.1290 273° West 429 494 32,000  Level FlightAware ADS-B
Fri 05:54:38 PM 41.5220 -107.2190 273° West 429 494 32,000  Level FlightAware ADS-B
Fri 05:55:18 PM 41.5260 -107.3090 273° West 429 494 32,000  Level FlightAware ADS-B
Fri 05:55:58 PM 41.5290 -107.3990 273° West 429 494 32,000  Level FlightAware ADS-B
Fri 05:56:48 PM 41.5330 -107.5120 273° West 429 494 32,000  Level FlightAware ADS-B
Fri 05:57:28 PM 41.5370 -107.6020 273° West 429 494 32,000  Level FlightAware ADS-B
Fri 05:58:08 PM 41.5410 -107.6920 273° West 429 494 32,000  Level FlightAware ADS-B
Fri 05:58:24 PM 41.5556 -107.9097 273° West 420 483 32,000  Level Salt Lake Center
Fri 05:59:17 PM 41.5608 -108.0564 273° West 418 481 32,000  Level Denver Center
Fri 06:00:19 PM 41.5661 -108.2044 273° West 419 482 32,000  Level Denver Center
Fri 06:01:29 PM 41.5728 -108.4033 273° West 419 482 32,000  Level Salt Lake Center
Fri 06:02:30 PM 41.5778 -108.5519 273° West 421 484 32,000  Level Salt Lake Center
Fri 06:03:32 PM 41.5831 -108.7239 272° West 418 481 32,000  Level Salt Lake Center
Fri 06:04:33 PM 41.5872 -108.8722 272° West 421 484 32,000  Level Salt Lake Center
Fri 06:05:35 PM 41.5914 -109.0194 272° West 420 483 32,000  Level Salt Lake Center
Fri 06:06:36 PM 41.6053 -109.1906 276° West 423 487 32,000  Level Salt Lake Center
Fri 06:07:38 PM 41.6167 -109.3369 276° West 420 483 32,000  Level Salt Lake Center
Fri 06:08:40 PM 41.6294 -109.5086 276° West 420 483 32,000  Level Salt Lake Center
Fri 06:09:41 PM 41.6408 -109.6567 276° West 420 483 32,000  Level Salt Lake Center
Fri 06:10:43 PM 41.6536 -109.8292 276° West 418 481 32,000  Level Salt Lake Center
Fri 06:11:44 PM 41.6647 -109.9761 276° West 417 480 32,000  Level Salt Lake Center
Fri 06:12:46 PM 41.6767 -110.1475 275° West 416 479 32,000  Level Salt Lake Center
Fri 06:13:47 PM 41.6875 -110.2947 276° West 417 480 32,000 -537 Level Salt Lake Center
Fri 06:14:49 PM 41.6986 -110.4689 275° West 421 484 30,900 -927 Descending Salt Lake Center
Fri 06:15:50 PM 41.7100 -110.6219 276° West 432 497 30,100 -439 Descending Salt Lake Center
Fri 06:16:52 PM 41.7208 -110.7733 276° West 429 494 30,000 -49 Descending Salt Lake Center
Fri 06:17:53 PM 41.7092 -110.9492 265° West 428 493 30,000  Level Salt Lake Center
Fri 06:18:55 PM 41.6892 -111.0956 260° West 425 489 30,000 -780 Level Salt Lake Center
Fri 06:19:56 PM 41.6678 -111.2522 260° West 429 494 28,400 -1,805 Descending Salt Lake Center
Fri 06:20:58 PM 41.6475 -111.4156 261° West 446 513 26,300 -1,919 Descending Salt Lake Center
Fri 06:26:58 PM 41.3470 -112.0890 261° West 394 453 14,900 -1,710 Descending FlightAware ADS-B
Fri 06:27:38 PM 41.2720 -112.1060 190° South 393 452 14,900  Level FlightAware ADS-B
Fri 06:28:23 PM 41.1980 -112.1220 189° South 394 453 14,900 -1,516 Level FlightAware ADS-B
Fri 06:29:13 PM 41.0970 -112.1430 189° South 383 441 12,500 -2,533 Descending FlightAware ADS-B
Fri 06:29:53 PM 41.0280 -112.1380 177° South 374 430 11,100 -1,129 Descending FlightAware ADS-B
Fri 06:30:38 PM 40.9530 -112.1220 171° South 367 422 10,900 -141 Descending FlightAware ADS-B
Fri 06:31:18 PM 40.8880 -112.1090 171° South 350 403 10,900  Level FlightAware ADS-B
Fri 06:31:58 PM 40.8270 -112.1010 174° South 300 345 10,900 -212 Level FlightAware ADS-B
Fri 06:32:43 PM 40.7690 -112.0940 175° South 262 302 10,600 -565 Descending FlightAware ADS-B
Fri 06:33:23 PM 40.7230 -112.0880 174° South 237 273 10,100 -764 Descending FlightAware ADS-B
Fri 06:33:38 PM 40.7080 -112.0860 174° South 228 262 9,900 -600 Descending FlightAware ADS-B
Fri 06:34:03 PM 40.6810 -112.0830 175° South 214 246 9,700 -764 Descending FlightAware ADS-B
Fri 06:34:33 PM 40.6520 -112.0740 167° South 211 243 9,200 -800 Descending FlightAware ADS-B
Fri 06:35:03 PM 40.6250 -112.0640 164° South 201 231 8,900 -450 Descending FlightAware ADS-B
Fri 06:35:13 PM 40.6160 -112.0600 161° South 201 231 8,900 -960 Level FlightAware ADS-B
Fri 06:35:28 PM 40.6080 -112.0470 129° Southeast 206 237 8,500 -1,600 Descending FlightAware ADS-B
Fri 06:35:43 PM 40.6060 -112.0300 99° East 209 241 8,100 -1,200 Descending FlightAware ADS-B
Fri 06:35:58 PM 40.6060 -112.0110 90° East 197 227 7,900 -1,440 Descending FlightAware ADS-B
Fri 06:36:08 PM 40.6110 -111.9990 61° Northeast 200 230 7,500 -1,680 Descending FlightAware ADS-B
Fri 06:36:23 PM 40.6220 -111.9870 40° Northeast 195 224 7,200 -1,067 Descending FlightAware ADS-B
Fri 06:36:53 PM 40.6480 -111.9800 12° North 177 204 6,700 -1,067 Descending FlightAware ADS-B
Fri 06:37:08 PM 40.6590 -111.9810 356° North 175 201 6,400 -1,050 Descending FlightAware ADS-B
Fri 06:37:33 PM 40.6800 -111.9850 352° North 165 190 6,000 -840 Descending FlightAware ADS-B
Fri 06:37:58 PM 40.6970 -111.9860 357° North 161 185 5,700 -933 Descending FlightAware ADS-B
Fri 06:38:18 PM 40.7130 -111.9880 355° North 160 184 5,300 -933 Descending FlightAware ADS-B
Fri 06:38:43 PM 40.7300 -111.9900 355° North 141 162 5,000 -764 Descending FlightAware ADS-B
Fri 06:39:13 PM 40.7510 -111.9930 354° North 140 161 4,600 -655 Descending FlightAware ADS-B
Fri 06:39:38 PM 40.7660 -111.9940 357° North 142 163 4,400 -400 Descending FlightAware ADS-B
Fri 06:40:13 PM 40.7870 -111.9970 354° North 139 160 4,200 -343 Descending FlightAware ADS-B

Login

Don't have an account? Register now (free) for customized features, flight alerts, and more!